• Join FlightAware (Why Join?)
  • Login
  • US Flag 
12:44AM EDT


 

Airport Tracker/Info


-or-


 

Live Flight TrackerFlight Track Log ✈ N2209L ✈ 30-Apr-2013 ✈ KTDW - KCNM

Flight Track Log - Related Links

Times and Time Zones

All times are in EDT time to prevent confusion due to time zone crossing. See the N2209L flight status page for this flight to view local times or setup timezone preferences in your user account.

Time Position Orientation Groundspeed Altitude Reporting Facility
EDT Latitude Longitude Course Direction KTS MPH feet Rate Location/Type
09:34AM 34.7011 -102.2642 217° Southwest 161 185 8,500  Level Albuquerque Center
09:35AM 34.6658 -102.2964 217° Southwest 160 184 8,500  Level Albuquerque Center
09:36AM 34.6217 -102.3347 216° Southwest 162 186 8,600  Climbing Albuquerque Center
09:37AM 34.5914 -102.3603 215° Southwest 163 188 8,600  Level Albuquerque Center
09:38AM 34.5542 -102.3908 214° Southwest 163 188 8,600  Level Albuquerque Center
09:39AM 34.5175 -102.4239 217° Southwest 163 188 8,600  Level Albuquerque Center
09:40AM 34.4808 -102.4575 217° Southwest 165 190 8,600  Level Albuquerque Center
09:41AM 34.4356 -102.4944 214° Southwest 164 189 8,600  Level Albuquerque Center
09:42AM 34.3975 -102.5261 214° Southwest 165 190 8,600  Level Albuquerque Center
09:43AM 34.3603 -102.5586 216° Southwest 166 191 8,600  Level Albuquerque Center
09:44AM 34.3228 -102.5906 215° Southwest 165 190 8,600  Level Albuquerque Center
09:45AM 34.2858 -102.6228 216° Southwest 164 189 8,600  Level Albuquerque Center
09:46AM 34.2489 -102.6556 216° Southwest 165 190 8,600  Level Albuquerque Center
09:47AM 34.2092 -102.6914 217° Southwest 168 193 8,600  Level Albuquerque Center
09:48AM 34.1719 -102.7242 216° Southwest 167 192 8,600  Level Albuquerque Center
09:50AM 34.0956 -102.7828 212° Southwest 173 199 8,600  Level Fort Worth Center
09:51AM 34.0606 -102.8183 220° Southwest 173 199 8,600  Level Fort Worth Center
09:52AM 34.0239 -102.8511 217° Southwest 173 199 8,600  Level Fort Worth Center
09:53AM 33.9889 -102.8864 220° Southwest 173 199 8,600  Level Fort Worth Center
09:54AM 33.9436 -102.9211 212° Southwest 173 199 8,600  Level Fort Worth Center
09:55AM 33.9089 -102.9489 214° Southwest 179 206 8,600  Level Fort Worth Center
09:56AM 33.8700 -102.9817 215° Southwest 172 198 8,600  Level Fort Worth Center
09:57AM 33.8353 -103.0119 216° Southwest 172 198 8,600  Level Fort Worth Center
09:58AM 33.7961 -103.0467 216° Southwest 177 204 8,600  Level Fort Worth Center
09:59AM 33.7569 -103.0817 217° Southwest 177 204 8,600  Level Fort Worth Center
10:00AM 33.7200 -103.1142 216° Southwest 177 204 8,600 -60 Level Fort Worth Center
10:01AM 33.6831 -103.1444 214° Southwest 171 197 8,500  Descending Fort Worth Center
10:02AM 33.6444 -103.1717 210° Southwest 176 203 8,600  Climbing Fort Worth Center
10:03AM 33.6053 -103.2067 217° Southwest 176 203 8,600  Level Fort Worth Center
10:04AM 33.5658 -103.2439 218° Southwest 176 203 8,600  Level Fort Worth Center
10:05AM 33.5311 -103.2714 213° Southwest 169 194 8,600  Level Fort Worth Center
10:06AM 33.4922 -103.3011 213° Southwest 169 194 8,600  Level Fort Worth Center
10:07AM 33.4553 -103.3336 216° Southwest 169 194 8,600  Level Fort Worth Center
10:08AM 33.4161 -103.3658 214° Southwest 169 194 8,600  Level Fort Worth Center
10:09AM 33.3814 -103.3958 216° Southwest 169 194 8,600  Level Fort Worth Center
10:10AM 33.3442 -103.4306 218° Southwest 169 194 8,600  Level Fort Worth Center
10:11AM 33.3381 -103.4333 201° Southwest 164 189 8,600  Level Albuquerque Center
10:12AM 33.2925 -103.4722 216° Southwest 166 191 8,600  Level Albuquerque Center
10:13AM 33.2553 -103.5022 214° Southwest 165 190 8,600  Level Albuquerque Center
10:14AM 33.2172 -103.5347 216° Southwest 166 191 8,600  Level Albuquerque Center
10:15AM 33.1808 -103.5647 215° Southwest 164 189 8,600  Level Albuquerque Center
10:16AM 33.1433 -103.5969 216° Southwest 164 189 8,600  Level Albuquerque Center
10:17AM 33.1069 -103.6283 216° Southwest 164 189 8,600  Level Albuquerque Center
10:18AM 33.0683 -103.6586 213° Southwest 164 189 8,600  Level Albuquerque Center
10:19AM 33.0236 -103.6972 216° Southwest 166 191 8,600  Level Albuquerque Center
10:20AM 32.9886 -103.7269 215° Southwest 161 185 8,600  Level Albuquerque Center
10:21AM 32.9481 -103.7600 214° Southwest 164 189 8,600  Level Albuquerque Center
10:22AM 32.9103 -103.7917 215° Southwest 165 190 8,600  Level Albuquerque Center
10:23AM 32.8703 -103.8256 215° Southwest 163 188 8,600  Level Albuquerque Center
10:24AM 32.8311 -103.8569 214° Southwest 168 193 8,600  Level Albuquerque Center
10:25AM 32.7944 -103.8878 215° Southwest 165 190 8,600 -120 Level Albuquerque Center
10:26AM 32.7533 -103.9211 214° Southwest 166 191 8,400 -300 Descending Albuquerque Center
10:27AM 32.7136 -103.9525 214° Southwest 168 193 8,100 -360 Descending Albuquerque Center
10:28AM 32.6744 -103.9867 216° Southwest 170 196 7,700 -480 Descending Albuquerque Center
10:29AM 32.6342 -104.0156 211° Southwest 173 199 7,200 -420 Descending Albuquerque Center
10:30AM 32.5883 -104.0353 200° South 175 201 6,900 -360 Descending Albuquerque Center
10:31AM 32.5400 -104.0656 208° Southwest 178 205 6,500 -300 Descending Albuquerque Center
10:32AM 32.5108 -104.1067 230° Southwest 165 190 6,300 -240 Descending Albuquerque Center
10:33AM 32.4867 -104.1461 234° Southwest 152 175 6,100 -180 Descending Albuquerque Center
10:34AM 32.4656 -104.1914 241° Southwest 148 170 6,000 -240 Descending Albuquerque Center
10:35AM 32.4647 -104.2283 268° West 158 182 5,700 -120 Descending Albuquerque Center
10:36AM 32.4819 -104.2406 329° Northwest 165 190 5,800  Climbing Albuquerque Center
10:37AM 32.4486 -104.2325 168° South 167 192 5,800  Level Albuquerque Center
10:39AM 32.4025 -104.2453 214° Southwest  Level Estimated
10:46AM 32.3333 -104.2500 214° Southwest  Level FlightAware Approximate
10:47AM 32.3374 -104.2634 214° Southwest  Level Estimated
10:48AM 32.3374 -104.2634 214° Southwest  Level Estimated
10:49AM 32.3374 -104.2634 214° Southwest  Level Estimated
10:50AM 32.3374 -104.2634 214° Southwest  Level Estimated